Time;durP1;ratioP1;P1;durP2;ratioP2;P2;SDS_P1;SDS_P2;PMS_P1;PMS_P2;Temp;Humidity;BMP_temperature;BMP_pressure;BME280_temperature;BME280_humidity;BME280_pressure;Samples;Min_cycle;Max_cycle;Signal;HPM_P1;HPM_P2
2022/03/19 00:02:21;;;;;;;16.98;9.35;;;7.90;47.90;;;;;;4929150;28;20421;-76
2022/03/19 00:04:47;;;;;;;22.27;9.27;;;7.70;48.00;;;;;;4921063;29;20416;-75
2022/03/19 00:07:13;;;;;;;16.92;9.15;;;7.70;48.00;;;;;;4921767;28;20400;-74
2022/03/19 00:09:39;;;;;;;19.42;9.75;;;7.70;47.40;;;;;;4920101;28;20409;-75
2022/03/19 00:12:07;;;;;;;20.55;9.25;;;7.80;47.90;;;;;;4897981;28;20402;-74
2022/03/19 00:14:32;;;;;;;16.02;9.43;;;7.80;47.20;;;;;;4937352;28;20409;-74
2022/03/19 00:16:59;;;;;;;15.70;8.55;;;7.80;47.00;;;;;;4922377;28;20431;-75
2022/03/19 00:19:25;;;;;;;17.77;9.33;;;7.90;46.90;;;;;;4917106;28;20413;-75
2022/03/19 00:21:50;;;;;;;15.27;9.27;;;7.90;47.80;;;;;;4900892;28;20405;-75
2022/03/19 00:24:16;;;;;;;15.77;9.80;;;8.10;44.40;;;;;;4917402;28;20536;-74
2022/03/19 00:26:42;;;;;;;17.50;9.53;;;8.10;45.80;;;;;;4900685;28;20408;-76
2022/03/19 00:29:08;;;;;;;22.15;9.40;;;8.10;47.20;;;;;;4917258;29;20436;-74
2022/03/19 00:31:34;;;;;;;17.17;9.70;;;8.10;44.40;;;;;;4919831;28;20397;-75
2022/03/19 00:34:00;;;;;;;17.50;9.05;;;8.10;45.00;;;;;;4939115;28;20490;-75
2022/03/19 00:36:26;;;;;;;20.77;10.20;;;8.10;45.30;;;;;;4917256;29;20547;-74
2022/03/19 00:38:51;;;;;;;14.25;9.30;;;8.00;45.80;;;;;;4917932;28;20409;-74
2022/03/19 00:41:17;;;;;;;16.40;9.63;;;8.00;44.70;;;;;;4917932;28;20878;-76
2022/03/19 00:43:43;;;;;;;14.15;9.00;;;8.00;46.80;;;;;;4900647;28;20460;-75
2022/03/19 00:46:09;;;;;;;14.70;8.83;;;8.00;46.90;;;;;;4916686;28;20413;-76
2022/03/19 00:48:34;;;;;;;16.30;9.13;;;8.20;46.00;;;;;;4917174;28;20402;-75
2022/03/19 00:51:00;;;;;;;17.90;8.90;;;8.00;47.30;;;;;;4923991;28;20525;-75
2022/03/19 00:53:26;;;;;;;19.80;9.52;;;8.00;47.40;;;;;;4912561;28;20412;-75
2022/03/19 00:55:51;;;;;;;19.85;9.00;;;7.80;46.60;;;;;;4917434;28;20431;-75
2022/03/19 00:58:17;;;;;;;20.75;10.15;;;7.90;48.80;;;;;;4915808;28;20969;-75
2022/03/19 01:00:42;;;;;;;14.77;8.38;;;7.90;47.90;;;;;;4913788;28;20875;-75
2022/03/19 01:03:08;;;;;;;15.15;8.88;;;7.90;46.40;;;;;;4913995;28;20417;-75
2022/03/19 01:05:34;;;;;;;19.10;9.23;;;8.00;46.30;;;;;;4914007;28;20455;-75
2022/03/19 01:07:59;;;;;;;17.08;9.07;;;7.90;47.00;;;;;;4922218;28;20408;-75
2022/03/19 01:10:26;;;;;;;20.60;9.20;;;8.00;47.00;;;;;;4910318;28;20429;-75
2022/03/19 01:12:54;;;;;;;15.00;8.98;;;8.00;46.50;;;;;;4927004;28;20849;-75
2022/03/19 01:15:20;;;;;;;19.50;9.18;;;8.00;46.70;;;;;;4896629;28;20425;-75
2022/03/19 01:17:46;;;;;;;16.90;9.13;;;8.00;46.20;;;;;;4912134;29;20413;-75
2022/03/19 01:20:14;;;;;;;16.30;9.82;;;7.90;46.30;;;;;;4913752;29;20412;-75
2022/03/19 01:22:41;;;;;;;15.73;8.88;;;7.90;46.40;;;;;;4914161;29;20508;-74
2022/03/19 01:25:08;;;;;;;16.80;8.70;;;7.90;45.70;;;;;;4914479;29;20500;-75
2022/03/19 01:27:36;;;;;;;22.65;9.10;;;7.90;46.10;;;;;;4897289;28;20416;-75
2022/03/19 01:30:02;;;;;;;14.48;8.70;;;7.90;45.60;;;;;;4925308;28;20470;-75
2022/03/19 01:32:28;;;;;;;20.15;9.13;;;7.80;46.30;;;;;;4913249;28;20409;-75
2022/03/19 01:34:54;;;;;;;15.63;8.98;;;7.90;46.20;;;;;;4899289;29;20752;-75
2022/03/19 01:37:21;;;;;;;20.80;8.93;;;7.80;46.00;;;;;;4916477;28;20790;-75
2022/03/19 01:39:46;;;;;;;17.83;9.10;;;7.90;45.40;;;;;;4916405;29;20417;-75
2022/03/19 01:42:21;;;;;;;18.33;9.52;;;7.80;45.30;;;;;;4898129;28;20410;-75
2022/03/19 01:44:46;;;;;;;15.43;9.13;;;7.70;46.50;;;;;;4911938;28;20508;-75
2022/03/19 01:47:12;;;;;;;16.75;9.43;;;7.70;47.40;;;;;;4914529;28;20951;-75
2022/03/19 01:49:37;;;;;;;19.70;9.52;;;7.70;48.40;;;;;;4910822;28;20417;-74
2022/03/19 01:52:07;;;;;;;16.20;9.27;;;7.70;48.40;;;;;;4924932;28;20471;-74
2022/03/19 01:54:36;;;;;;;16.48;8.55;;;7.70;47.40;;;;;;4912825;28;20879;-74
2022/03/19 01:57:02;;;;;;;19.92;8.60;;;7.60;47.90;;;;;;4913200;28;20420;-74
2022/03/19 01:59:32;;;;;;;13.93;8.63;;;7.70;46.40;;;;;;4913524;29;20401;-74
2022/03/19 02:01:59;;;;;;;19.48;9.05;;;7.70;47.20;;;;;;4896378;28;20401;-74
2022/03/19 02:04:25;;;;;;;21.17;9.48;;;7.60;46.60;;;;;;4915162;28;20406;-74
2022/03/19 02:06:50;;;;;;;13.83;8.80;;;7.60;47.80;;;;;;4907455;28;20440;-74
2022/03/19 02:09:16;;;;;;;17.43;8.40;;;7.70;47.10;;;;;;4912400;28;20435;-75
2022/03/19 02:11:42;;;;;;;17.73;9.50;;;7.70;46.20;;;;;;4913035;28;20428;-74
2022/03/19 02:14:07;;;;;;;15.02;8.55;;;7.60;45.40;;;;;;4913304;29;20421;-74
2022/03/19 02:16:33;;;;;;;17.70;8.30;;;7.60;47.20;;;;;;4912619;28;20420;-74
2022/03/19 02:18:59;;;;;;;17.30;9.18;;;7.70;45.90;;;;;;4908739;28;20405;-74
2022/03/19 02:21:25;;;;;;;15.95;9.45;;;7.60;46.90;;;;;;4912906;28;20447;-74
2022/03/19 02:26:44;;;;;;;18.65;9.88;;;7.50;47.20;;;;;;4927814;28;20417;-74
2022/03/19 02:29:11;;;;;;;21.67;9.90;;;7.40;47.50;;;;;;4906095;29;20504;-74
2022/03/19 02:31:40;;;;;;;17.55;9.38;;;7.20;48.60;;;;;;4912443;29;20406;-74
2022/03/19 02:34:08;;;;;;;16.95;9.10;;;7.30;52.20;;;;;;4912512;29;20489;-73
2022/03/19 02:36:35;;;;;;;17.33;9.15;;;7.40;49.30;;;;;;4911563;29;20410;-74
2022/03/19 02:39:11;;;;;;;17.92;9.27;;;7.30;49.80;;;;;;4913009;29;20444;-73
2022/03/19 02:41:41;;;;;;;22.08;9.43;;;7.30;49.40;;;;;;4912696;28;20421;-75
2022/03/19 02:44:07;;;;;;;21.03;9.93;;;7.20;48.90;;;;;;4916198;28;20499;-75
2022/03/19 02:46:57;;;;;;;24.50;9.50;;;7.00;50.60;;;;;;4913023;28;20472;-74
2022/03/19 02:49:23;;;;;;;16.87;9.00;;;6.90;50.60;;;;;;4916171;29;20914;-75
2022/03/19 02:51:51;;;;;;;20.13;9.43;;;6.80;52.10;;;;;;4913345;28;20409;-74
2022/03/19 02:54:19;;;;;;;15.65;9.15;;;6.80;55.10;;;;;;4911557;28;20401;-75
2022/03/19 02:56:45;;;;;;;18.52;9.57;;;6.50;53.60;;;;;;4912657;28;20415;-75
2022/03/19 02:59:19;;;;;;;25.95;9.93;;;6.30;55.70;;;;;;4918196;28;20425;-75
2022/03/19 03:01:46;;;;;;;17.98;9.57;;;6.20;57.70;;;;;;4907510;28;20495;-74
2022/03/19 03:04:11;;;;;;;15.65;9.88;;;6.50;56.50;;;;;;4915717;28;20452;-74
2022/03/19 03:06:39;;;;;;;15.27;9.40;;;6.60;56.40;;;;;;4936557;28;20409;-74
2022/03/19 03:09:05;;;;;;;15.88;9.63;;;6.60;56.70;;;;;;4914385;28;20405;-74
2022/03/19 03:11:31;;;;;;;22.73;10.27;;;6.60;54.40;;;;;;4910167;29;20394;-74
2022/03/19 03:13:57;;;;;;;19.30;9.10;;;6.50;56.90;;;;;;4909050;28;20469;-74
2022/03/19 03:16:25;;;;;;;20.00;10.00;;;6.30;58.40;;;;;;4912022;28;20485;-76
2022/03/19 03:18:50;;;;;;;15.45;9.85;;;6.00;61.30;;;;;;4891724;28;20417;-73
2022/03/19 03:21:16;;;;;;;19.08;10.50;;;5.90;62.50;;;;;;4906193;28;20435;-73
2022/03/19 03:23:41;;;;;;;21.87;10.50;;;5.90;63.40;;;;;;4909440;28;20429;-72
2022/03/19 03:26:07;;;;;;;17.43;9.97;;;5.80;64.20;;;;;;4907953;28;20401;-72
2022/03/19 03:28:33;;;;;;;17.00;10.13;;;5.80;64.60;;;;;;4909867;28;20401;-73
2022/03/19 03:30:58;;;;;;;21.93;11.10;;;5.80;65.60;;;;;;4911015;28;20887;-72
2022/03/19 03:33:24;;;;;;;20.90;9.90;;;5.80;66.90;;;;;;4911318;28;20413;-73
2022/03/19 03:35:50;;;;;;;21.60;9.90;;;5.80;66.40;;;;;;4911534;28;20416;-74
2022/03/19 03:38:15;;;;;;;23.23;10.50;;;5.70;69.10;;;;;;4911042;28;20411;-74
2022/03/19 03:40:44;;;;;;;14.75;10.02;;;6.00;66.90;;;;;;4911538;28;20490;-74
2022/03/19 03:43:09;;;;;;;16.40;9.85;;;6.10;64.90;;;;;;4910380;29;20471;-74
2022/03/19 03:45:35;;;;;;;17.83;9.80;;;6.10;63.90;;;;;;4910940;28;20491;-74
2022/03/19 03:48:01;;;;;;;18.37;10.67;;;6.00;61.60;;;;;;4910183;28;20401;-73
2022/03/19 03:50:27;;;;;;;18.90;9.87;;;5.90;61.70;;;;;;4910878;28;20487;-73
2022/03/19 03:52:54;;;;;;;17.40;9.45;;;5.70;62.60;;;;;;4911370;29;20464;-73
2022/03/19 03:55:20;;;;;;;31.38;10.75;;;5.50;63.00;;;;;;4910689;28;20412;-73
2022/03/19 03:57:46;;;;;;;20.80;11.10;;;5.50;68.50;;;;;;4905294;28;20440;-72
2022/03/19 04:00:12;;;;;;;19.30;10.50;;;5.50;67.30;;;;;;4910743;28;20441;-72
2022/03/19 04:02:38;;;;;;;17.58;10.55;;;5.50;70.80;;;;;;4932453;28;20428;-71
2022/03/19 04:05:04;;;;;;;20.92;10.95;;;5.70;71.50;;;;;;4927731;28;20410;-72
2022/03/19 04:07:30;;;;;;;19.85;10.88;;;5.80;65.90;;;;;;4908966;28;20415;-73
2022/03/19 04:09:56;;;;;;;18.83;11.00;;;5.80;65.20;;;;;;4926360;28;20405;-72
2022/03/19 04:12:22;;;;;;;20.65;10.82;;;5.60;66.30;;;;;;4914014;28;20409;-72
2022/03/19 04:14:49;;;;;;;17.63;10.40;;;5.70;68.30;;;;;;4907771;28;20427;-72
2022/03/19 04:17:15;;;;;;;23.50;11.43;;;5.80;66.00;;;;;;4909883;29;20743;-72
2022/03/19 04:19:40;;;;;;;22.38;10.57;;;5.90;64.70;;;;;;4909497;28;20415;-72
2022/03/19 04:22:06;;;;;;;19.52;9.77;;;6.10;62.90;;;;;;4927443;28;20779;-72
2022/03/19 04:24:31;;;;;;;19.95;11.25;;;6.10;61.60;;;;;;4910779;28;20852;-72
2022/03/19 04:26:57;;;;;;;24.33;11.27;;;6.10;60.60;;;;;;4911524;28;20420;-71
2022/03/19 04:29:23;;;;;;;19.73;11.13;;;6.30;57.50;;;;;;4911120;28;20400;-73
2022/03/19 04:31:49;;;;;;;20.65;11.95;;;6.30;57.20;;;;;;4911286;28;20405;-74
2022/03/19 04:34:14;;;;;;;23.73;12.60;;;6.30;56.80;;;;;;4916834;28;20413;-73
2022/03/19 04:36:40;;;;;;;25.30;12.60;;;6.30;58.10;;;;;;4914140;28;20887;-72
2022/03/19 04:39:07;;;;;;;22.40;13.25;;;6.20;59.20;;;;;;4909080;28;20419;-73
2022/03/19 04:41:34;;;;;;;24.95;13.82;;;6.10;60.90;;;;;;4903190;29;20424;-73
2022/03/19 04:44:00;;;;;;;27.60;13.43;;;5.80;62.40;;;;;;4913973;29;20430;-73
2022/03/19 04:46:26;;;;;;;24.42;12.88;;;5.90;64.30;;;;;;4913603;28;20843;-72
2022/03/19 04:48:52;;;;;;;23.25;13.30;;;5.90;63.70;;;;;;4913708;28;20500;-73
2022/03/19 04:51:19;;;;;;;22.73;13.57;;;5.60;66.00;;;;;;4914077;28;20816;-71
2022/03/19 04:53:50;;;;;;;25.17;13.80;;;5.40;69.40;;;;;;4914110;28;20417;-73
2022/03/19 04:56:22;;;;;;;26.97;14.10;;;5.20;71.80;;;;;;4913577;28;20861;-71
2022/03/19 04:58:49;;;;;;;24.58;13.77;;;5.10;74.80;;;;;;4933886;28;20448;-73
2022/03/19 05:01:16;;;;;;;23.57;13.43;;;5.20;78.30;;;;;;4933677;28;20580;-72
2022/03/19 05:03:41;;;;;;;17.05;12.60;;;5.40;76.40;;;;;;4912351;28;20504;-72
2022/03/19 05:06:07;;;;;;;24.00;13.27;;;5.70;68.70;;;;;;4914121;28;20489;-72
2022/03/19 05:08:32;;;;;;;20.13;12.20;;;5.70;67.50;;;;;;4913345;28;20462;-71
2022/03/19 05:11:13;;;;;;;25.67;13.30;;;5.70;69.40;;;;;;4914075;28;20393;-73
2022/03/19 05:13:40;;;;;;;24.33;12.98;;;5.50;69.70;;;;;;4912828;28;20414;-73
2022/03/19 05:16:06;;;;;;;20.15;12.73;;;5.40;71.90;;;;;;4913853;28;20798;-72
2022/03/19 05:18:31;;;;;;;22.73;13.35;;;5.20;73.30;;;;;;4911925;28;20511;-73
2022/03/19 05:20:57;;;;;;;21.30;13.20;;;5.10;76.20;;;;;;4936811;28;20441;-72
2022/03/19 05:23:23;;;;;;;21.90;13.10;;;5.10;77.70;;;;;;4913026;28;20513;-73
2022/03/19 05:25:49;;;;;;;22.33;13.35;;;5.10;78.70;;;;;;4913579;28;20429;-71
2022/03/19 05:28:16;;;;;;;24.30;12.82;;;5.00;79.50;;;;;;4913222;28;20404;-72
2022/03/19 05:30:42;;;;;;;19.70;12.98;;;5.00;79.80;;;;;;4912822;29;20408;-71
2022/03/19 05:33:07;;;;;;;24.88;13.27;;;5.00;81.90;;;;;;4910337;29;20488;-72
2022/03/19 05:35:33;;;;;;;27.00;13.07;;;4.90;79.50;;;;;;4914215;28;20431;-73
2022/03/19 05:38:00;;;;;;;29.10;14.43;;;4.70;79.60;;;;;;4944977;28;20460;-71
2022/03/19 05:40:26;;;;;;;26.27;14.10;;;4.70;81.30;;;;;;4904055;28;20512;-76
2022/03/19 05:42:52;;;;;;;28.50;13.75;;;4.50;81.10;;;;;;4914549;29;20798;-76
2022/03/19 05:45:20;;;;;;;30.02;14.93;;;4.40;83.50;;;;;;4896519;28;20480;-75
2022/03/19 05:47:46;;;;;;;29.00;14.93;;;4.40;85.50;;;;;;4914170;28;20429;-76
2022/03/19 05:50:13;;;;;;;26.63;14.30;;;4.30;87.00;;;;;;4896570;28;20401;-76
2022/03/19 05:52:40;;;;;;;29.52;15.85;;;4.40;86.70;;;;;;4914018;28;20441;-75
2022/03/19 05:55:07;;;;;;;26.67;14.02;;;4.50;82.50;;;;;;4912022;29;20418;-76
2022/03/19 05:57:33;;;;;;;32.80;15.88;;;4.50;82.50;;;;;;4933396;28;20418;-75
2022/03/19 05:59:59;;;;;;;26.77;15.77;;;4.40;83.60;;;;;;4918285;28;20455;-77
2022/03/19 06:02:25;;;;;;;23.65;14.95;;;4.40;85.20;;;;;;4916814;28;20437;-76
2022/03/19 06:04:52;;;;;;;23.63;15.30;;;4.50;87.00;;;;;;4915924;28;20409;-75
2022/03/19 06:07:18;;;;;;;27.50;15.32;;;4.50;85.90;;;;;;4921690;28;20469;-76
2022/03/19 06:09:43;;;;;;;24.45;15.68;;;4.70;84.30;;;;;;4943421;28;20409;-75
2022/03/19 06:12:09;;;;;;;22.45;14.68;;;4.80;80.70;;;;;;4923898;28;20433;-76
2022/03/19 06:14:35;;;;;;;33.90;16.90;;;4.70;82.60;;;;;;4932365;28;20897;-76
2022/03/19 06:17:00;;;;;;;23.17;13.55;;;4.90;82.80;;;;;;4921504;28;20477;-75
2022/03/19 06:19:26;;;;;;;26.38;14.63;;;5.20;76.30;;;;;;4922645;28;20405;-76
2022/03/19 06:21:52;;;;;;;25.10;14.60;;;5.30;73.90;;;;;;4917627;28;20937;-75
2022/03/19 06:24:17;;;;;;;23.07;13.97;;;5.50;69.30;;;;;;4914689;28;20413;-76
2022/03/19 06:26:43;;;;;;;27.67;14.83;;;5.70;67.60;;;;;;4913386;29;20402;-75
2022/03/19 06:29:09;;;;;;;22.95;13.60;;;5.80;65.50;;;;;;4914137;28;20403;-76
2022/03/19 06:31:35;;;;;;;21.42;13.40;;;5.90;62.10;;;;;;4914775;28;20402;-76
2022/03/19 06:34:01;;;;;;;25.60;13.70;;;6.00;60.30;;;;;;4913614;28;20771;-74
2022/03/19 06:39:12;;;;;;;24.92;14.30;;;6.20;59.70;;;;;;4915026;29;20405;-77
2022/03/19 06:41:37;;;;;;;27.30;15.20;;;6.20;58.90;;;;;;4916724;29;20433;-76
2022/03/19 06:44:03;;;;;;;27.02;14.45;;;6.20;58.90;;;;;;4912181;29;20941;-77
2022/03/19 06:46:29;;;;;;;26.47;14.80;;;6.30;60.70;;;;;;4913145;28;20508;-75
2022/03/19 06:48:54;;;;;;;29.40;13.87;;;6.30;59.80;;;;;;4912697;28;20969;-77
2022/03/19 06:51:20;;;;;;;22.88;14.45;;;6.50;58.70;;;;;;4912814;29;20444;-76
2022/03/19 06:53:47;;;;;;;26.15;14.55;;;6.50;59.60;;;;;;4907106;28;20415;-76
2022/03/19 06:56:13;;;;;;;23.15;13.60;;;6.60;59.50;;;;;;4912709;29;20445;-76
2022/03/19 06:58:39;;;;;;;29.42;14.23;;;6.70;59.00;;;;;;4912511;28;20406;-77
2022/03/19 07:01:05;;;;;;;25.38;13.90;;;6.80;59.30;;;;;;4912621;29;20487;-75
2022/03/19 07:03:31;;;;;;;21.77;12.77;;;6.80;56.30;;;;;;4913124;28;20778;-75
2022/03/19 07:05:57;;;;;;;21.98;12.40;;;7.00;53.20;;;;;;4914641;28;20401;-75
2022/03/19 07:08:22;;;;;;;23.50;12.18;;;7.10;51.50;;;;;;4914934;28;20420;-77
2022/03/19 07:10:52;;;;;;;21.02;11.25;;;7.10;50.40;;;;;;4914601;28;20410;-77
2022/03/19 07:13:18;;;;;;;22.58;11.88;;;7.20;49.60;;;;;;4898298;28;20415;-75
2022/03/19 07:15:44;;;;;;;21.23;11.35;;;7.20;49.70;;;;;;4901055;29;20413;-77
2022/03/19 07:18:09;;;;;;;19.83;11.80;;;7.30;49.50;;;;;;4919034;28;20427;-76
2022/03/19 07:20:35;;;;;;;18.07;11.20;;;7.30;49.60;;;;;;4921244;29;20464;-76
2022/03/19 07:23:01;;;;;;;19.00;11.10;;;7.40;49.00;;;;;;4913516;29;20428;-76
2022/03/19 07:25:32;;;;;;;20.77;11.30;;;7.50;48.20;;;;;;4913208;28;20952;-75
2022/03/19 07:28:05;;;;;;;26.73;12.17;;;7.60;48.20;;;;;;4899045;28;20499;-75
2022/03/19 07:30:31;;;;;;;20.05;11.82;;;7.60;49.30;;;;;;4899994;28;20462;-76
2022/03/19 07:32:57;;;;;;;17.50;10.40;;;7.80;48.90;;;;;;4945660;28;20484;-76
2022/03/19 07:35:23;;;;;;;19.53;11.63;;;7.90;46.60;;;;;;4912954;28;20830;-77
2022/03/19 07:37:49;;;;;;;16.38;10.23;;;8.00;45.30;;;;;;4912849;28;20448;-75
2022/03/19 07:43:08;;;;;;;19.45;11.27;;;8.20;44.40;;;;;;4922567;29;20429;-76
2022/03/19 07:45:34;;;;;;;18.10;10.70;;;8.30;43.40;;;;;;4913131;29;20397;-76
2022/03/19 07:48:00;;;;;;;16.70;10.23;;;8.40;44.10;;;;;;4912461;28;20499;-76
2022/03/19 07:50:26;;;;;;;17.70;9.90;;;8.40;43.60;;;;;;4912742;29;20410;-75
2022/03/19 07:52:52;;;;;;;23.15;10.15;;;8.50;43.40;;;;;;4911847;28;20406;-76
2022/03/19 07:55:18;;;;;;;19.05;10.50;;;8.60;43.30;;;;;;4896435;28;20413;-77
2022/03/19 07:57:44;;;;;;;18.15;10.40;;;8.70;43.00;;;;;;4913275;28;20414;-76
2022/03/19 08:00:12;;;;;;;20.25;10.43;;;8.80;41.70;;;;;;4914131;28;20419;-76
2022/03/19 08:02:38;;;;;;;17.05;9.00;;;8.90;41.90;;;;;;4916587;28;20517;-76
2022/03/19 08:05:04;;;;;;;21.13;10.02;;;9.20;40.10;;;;;;4916783;29;20467;-77
2022/03/19 08:07:31;;;;;;;20.48;9.35;;;9.20;38.50;;;;;;4916092;28;20428;-76
2022/03/19 08:09:56;;;;;;;19.65;9.13;;;9.30;37.60;;;;;;4949787;28;20816;-76
2022/03/19 08:12:22;;;;;;;18.17;9.13;;;9.40;38.40;;;;;;4900144;28;20406;-77
2022/03/19 08:14:49;;;;;;;19.75;9.98;;;9.40;39.00;;;;;;4911430;28;20441;-76
2022/03/19 08:17:15;;;;;;;18.05;8.90;;;9.40;37.20;;;;;;4923964;28;20402;-77
2022/03/19 08:19:42;;;;;;;18.20;9.43;;;9.60;36.60;;;;;;4930856;28;20416;-76
2022/03/19 08:22:08;;;;;;;21.30;9.63;;;9.70;38.10;;;;;;4929716;28;20402;-75
2022/03/19 08:24:35;;;;;;;19.23;9.20;;;9.70;36.40;;;;;;4905934;29;20504;-77
2022/03/19 08:27:01;;;;;;;17.33;9.03;;;9.80;35.50;;;;;;4905889;28;20849;-76
2022/03/19 08:29:27;;;;;;;19.25;9.50;;;9.90;36.80;;;;;;4925787;28;20467;-75
2022/03/19 08:31:53;;;;;;;15.90;9.30;;;10.10;35.10;;;;;;4923979;28;20884;-74
2022/03/19 08:34:20;;;;;;;18.52;8.98;;;11.00;35.10;;;;;;4920482;28;20456;-75
2022/03/19 08:36:45;;;;;;;19.45;8.43;;;10.10;34.20;;;;;;4916546;28;20409;-76
2022/03/19 08:41:57;;;;;;;16.23;9.10;;;10.30;34.30;;;;;;4913175;29;20453;-73
2022/03/19 08:44:23;;;;;;;19.75;9.73;;;10.40;33.60;;;;;;4913458;29;20424;-73
2022/03/19 08:46:48;;;;;;;14.60;9.37;;;10.50;33.60;;;;;;4918814;28;20463;-75
2022/03/19 08:49:14;;;;;;;21.52;8.75;;;10.50;31.40;;;;;;4914142;28;20422;-75
2022/03/19 08:51:40;;;;;;;16.98;8.50;;;10.60;31.80;;;;;;4914919;28;20405;-76
2022/03/19 08:54:17;;;;;;;16.95;8.93;;;10.70;32.40;;;;;;4896678;28;20406;-76
2022/03/19 08:56:44;;;;;;;20.02;7.47;;;10.80;29.80;;;;;;4914962;29;20410;-76
2022/03/19 08:59:10;;;;;;;17.17;8.15;;;10.90;29.00;;;;;;4916119;29;20424;-74
2022/03/19 09:01:38;;;;;;;15.93;7.82;;;10.80;27.90;;;;;;4921035;28;20406;-75
2022/03/19 09:04:04;;;;;;;14.55;7.35;;;10.80;27.20;;;;;;4927984;28;20467;-74
2022/03/19 09:06:30;;;;;;;18.77;7.18;;;10.90;27.10;;;;;;4919511;29;20493;-74
2022/03/19 09:08:55;;;;;;;12.45;6.90;;;11.00;27.10;;;;;;4924556;28;20449;-75
2022/03/19 09:11:23;;;;;;;13.45;7.07;;;11.20;26.80;;;;;;4926738;28;20421;-74
2022/03/19 09:13:50;;;;;;;12.50;6.15;;;11.10;26.70;;;;;;4919207;28;20480;-74
2022/03/19 09:16:18;;;;;;;9.77;5.60;;;11.30;25.70;;;;;;4916335;29;20413;-75
2022/03/19 09:18:44;;;;;;;13.50;6.53;;;11.40;23.80;;;;;;4915145;28;20405;-75
2022/03/19 09:21:09;;;;;;;16.27;6.60;;;11.40;24.00;;;;;;4914204;28;20977;-76
2022/03/19 09:23:35;;;;;;;18.02;5.80;;;11.50;23.80;;;;;;4912092;28;20730;-75
2022/03/19 09:26:00;;;;;;;12.57;5.60;;;11.50;23.20;;;;;;4914058;28;21004;-76
2022/03/19 09:28:26;;;;;;;8.73;5.07;;;11.60;21.70;;;;;;4912758;28;20433;-77
2022/03/19 09:30:52;;;;;;;12.30;5.28;;;11.50;20.00;;;;;;4915976;28;20417;-75
2022/03/19 09:33:18;;;;;;;13.10;5.63;;;11.50;20.60;;;;;;4916367;28;20405;-76
2022/03/19 09:35:48;;;;;;;15.40;5.35;;;11.40;20.00;;;;;;4914386;28;20416;-76
2022/03/19 09:38:14;;;;;;;10.35;5.30;;;11.40;19.30;;;;;;4912297;28;20453;-77
2022/03/19 09:40:41;;;;;;;10.60;5.40;;;11.50;19.60;;;;;;4915171;28;20414;-76
2022/03/19 09:43:08;;;;;;;13.37;5.40;;;11.50;18.90;;;;;;4893261;28;20926;-76
2022/03/19 09:45:35;;;;;;;12.65;5.28;;;11.60;18.30;;;;;;4911871;28;20412;-76
2022/03/19 09:48:01;;;;;;;11.38;5.13;;;11.70;19.20;;;;;;4917041;29;20433;-76
2022/03/19 09:50:28;;;;;;;12.15;5.28;;;11.70;18.20;;;;;;4917044;28;20417;-76
2022/03/19 09:52:56;;;;;;;8.85;5.00;;;11.80;17.80;;;;;;4917050;28;20437;-77
2022/03/19 09:55:26;;;;;;;10.50;4.53;;;12.00;17.70;;;;;;4899538;28;20953;-76
2022/03/19 09:57:56;;;;;;;8.73;4.43;;;12.00;15.40;;;;;;4915559;28;20464;-76
2022/03/19 10:00:22;;;;;;;14.38;4.78;;;12.10;15.60;;;;;;4901736;28;20420;-76
2022/03/19 10:03:02;;;;;;;9.98;5.10;;;12.10;15.10;;;;;;4920027;28;20676;-76
2022/03/19 10:08:36;;;;;;;10.80;5.03;;;12.20;15.00;;;;;;4915841;28;20555;-75
2022/03/19 10:11:04;;;;;;;11.20;4.57;;;12.20;15.60;;;;;;4913329;28;20491;-75
2022/03/19 10:13:30;;;;;;;14.00;4.22;;;12.30;15.30;;;;;;4915311;28;20418;-76
2022/03/19 10:15:56;;;;;;;10.77;4.90;;;12.20;14.60;;;;;;4914629;29;20398;-76
2022/03/19 10:18:40;;;;;;;8.10;5.10;;;12.10;14.30;;;;;;4898387;28;20493;-75
2022/03/19 10:21:25;;;;;;;7.50;5.15;;;12.20;15.90;;;;;;4922829;28;20441;-76
2022/03/19 10:23:51;;;;;;;12.63;5.82;;;12.30;15.50;;;;;;4896222;29;20508;-75
2022/03/19 10:26:23;;;;;;;9.82;4.93;;;12.20;15.10;;;;;;4913445;28;20440;-76
2022/03/19 10:29:09;;;;;;;11.50;4.90;;;12.30;14.90;;;;;;4896645;28;20449;-76
2022/03/19 10:31:40;;;;;;;9.10;4.82;;;12.40;14.30;;;;;;4912557;28;20394;-76
2022/03/19 10:34:07;;;;;;;14.10;5.33;;;12.60;13.00;;;;;;4908496;28;20491;-77
2022/03/19 10:36:38;;;;;;;9.60;4.72;;;12.30;13.40;;;;;;4916284;28;20433;-78
2022/03/19 10:39:22;;;;;;;11.18;4.53;;;12.50;13.10;;;;;;4922626;29;20425;-80
2022/03/19 10:41:49;;;;;;;6.97;4.20;;;12.60;11.50;;;;;;4918785;28;20474;-77
2022/03/19 10:44:24;;;;;;;8.93;4.05;;;12.70;12.80;;;;;;4898225;29;20444;-78
2022/03/19 10:46:55;;;;;;;6.57;4.38;;;12.80;10.70;;;;;;4908823;28;20410;-76
2022/03/19 10:49:24;;;;;;;9.33;4.03;;;12.70;11.40;;;;;;4912491;29;20410;-76
2022/03/19 10:51:53;;;;;;;8.50;4.93;;;12.60;10.50;;;;;;4912346;29;20405;-76
2022/03/19 10:54:19;;;;;;;8.77;4.50;;;12.60;11.10;;;;;;4911471;28;20401;-76
2022/03/19 10:56:47;;;;;;;12.00;5.30;;;12.50;11.80;;;;;;4908860;29;20403;-76
2022/03/19 10:59:14;;;;;;;7.47;4.13;;;12.70;11.30;;;;;;4909292;29;20976;-77
2022/03/19 11:01:41;;;;;;;8.23;4.35;;;12.80;10.50;;;;;;4919777;28;20508;-77
2022/03/19 11:04:08;;;;;;;10.10;4.43;;;12.80;10.30;;;;;;4914166;28;20422;-75
2022/03/19 11:06:40;;;;;;;10.70;3.90;;;12.70;9.80;;;;;;4912002;28;20420;-76
2022/03/19 11:09:12;;;;;;;4.65;3.20;;;12.80;9.60;;;;;;4912328;28;20429;-75
2022/03/19 11:11:48;;;;;;;8.77;3.95;;;12.80;8.70;;;;;;4911742;29;20811;-75
2022/03/19 11:14:22;;;;;;;9.80;4.10;;;12.60;9.00;;;;;;4889618;29;20413;-76
2022/03/19 11:19:48;;;;;;;12.30;4.90;;;13.00;9.50;;;;;;4916226;28;20413;-75
2022/03/19 11:22:15;;;;;;;8.57;4.20;;;13.10;9.80;;;;;;4918311;29;20413;-76
2022/03/19 11:25:07;;;;;;;8.43;3.90;;;13.10;8.20;;;;;;4913947;28;20839;-76
2022/03/19 11:27:36;;;;;;;7.80;3.70;;;13.10;9.10;;;;;;4907023;29;20492;-76
2022/03/19 11:30:04;;;;;;;7.15;4.20;;;13.30;7.50;;;;;;4921114;29;20456;-77
2022/03/19 11:32:30;;;;;;;10.33;3.90;;;13.30;8.10;;;;;;4911597;29;20413;-76
2022/03/19 11:34:59;;;;;;;7.70;4.10;;;13.30;8.10;;;;;;4920748;28;20428;-76
2022/03/19 11:37:57;;;;;;;6.72;3.60;;;13.30;8.30;;;;;;4915814;29;20762;-76
2022/03/19 11:40:22;;;;;;;9.82;4.00;;;13.20;8.30;;;;;;4911902;29;20408;-76
2022/03/19 11:42:55;;;;;;;7.97;3.90;;;13.10;8.60;;;;;;4896566;28;20425;-77
2022/03/19 11:45:21;;;;;;;8.77;4.30;;;13.30;8.90;;;;;;4895930;29;20407;-78
2022/03/19 11:47:47;;;;;;;11.27;4.65;;;13.30;8.30;;;;;;4911999;29;20422;-77
2022/03/19 11:50:24;;;;;;;8.95;3.70;;;13.20;8.10;;;;;;4906965;29;20505;-76
2022/03/19 11:52:52;;;;;;;6.15;3.55;;;13.20;7.10;;;;;;4897681;28;20425;-77
2022/03/19 11:55:19;;;;;;;8.27;3.65;;;13.20;6.30;;;;;;4915949;28;20798;-75
2022/03/19 11:57:55;;;;;;;8.38;3.00;;;13.10;5.60;;;;;;4919620;28;20428;-75
2022/03/19 12:00:22;;;;;;;5.95;3.30;;;13.10;5.60;;;;;;4911060;29;20906;-75
2022/03/19 12:03:10;;;;;;;7.45;3.08;;;13.00;5.60;;;;;;4915921;28;20417;-74
2022/03/19 12:05:42;;;;;;;8.27;3.00;;;13.20;5.00;;;;;;4912163;28;20460;-76
2022/03/19 12:08:08;;;;;;;4.65;2.70;;;13.30;5.10;;;;;;4919040;29;20437;-77
2022/03/19 12:10:48;;;;;;;7.80;2.90;;;13.30;4.20;;;;;;4925099;28;20478;-76
2022/03/19 12:13:42;;;;;;;6.72;2.88;;;13.30;4.90;;;;;;4921825;28;20509;-76
2022/03/19 12:16:08;;;;;;;5.32;2.50;;;13.40;4.00;;;;;;4924289;28;20421;-76
2022/03/19 12:18:41;;;;;;;7.90;2.80;;;13.40;2.90;;;;;;4918022;29;20431;-74
2022/03/19 12:21:10;;;;;;;4.80;2.40;;;13.30;2.60;;;;;;4916799;29;20471;-75
2022/03/19 12:23:40;;;;;;;4.93;2.90;;;13.20;2.70;;;;;;4908721;28;20417;-74
2022/03/19 12:26:08;;;;;;;4.93;2.17;;;13.20;3.60;;;;;;4914490;29;20891;-74
2022/03/19 12:28:35;;;;;;;7.20;2.30;;;13.30;3.00;;;;;;4900673;28;20855;-75
2022/03/19 12:31:09;;;;;;;5.32;2.30;;;13.20;2.80;;;;;;4917017;29;20925;-75
2022/03/19 12:33:35;;;;;;;6.53;2.20;;;13.20;3.00;;;;;;4910577;28;20579;-76
2022/03/19 12:36:15;;;;;;;6.28;2.08;;;13.20;3.30;;;;;;4912298;28;20436;-76
2022/03/19 12:38:41;;;;;;;6.60;2.40;;;13.20;2.60;;;;;;4915567;29;20428;-76
2022/03/19 12:43:51;;;;;;;3.97;2.08;;;13.20;3.50;;;;;;4917605;29;20525;-76
2022/03/19 12:46:24;;;;;;;3.42;1.80;;;13.30;2.60;;;;;;4917368;28;20453;-76
2022/03/19 12:48:50;;;;;;;5.40;2.28;;;13.10;2.50;;;;;;4914509;28;20416;-75
2022/03/19 12:51:24;;;;;;;4.55;1.80;;;13.10;2.10;;;;;;4907080;28;20428;-76
2022/03/19 12:53:49;;;;;;;8.23;2.33;;;13.00;2.10;;;;;;4924224;28;20413;-75
2022/03/19 12:56:17;;;;;;;6.10;2.00;;;13.10;3.30;;;;;;4918193;28;20787;-76
2022/03/19 12:58:45;;;;;;;6.50;1.75;;;13.20;3.60;;;;;;4915244;28;20433;-75
2022/03/19 13:01:21;;;;;;;7.07;2.00;;;13.20;2.90;;;;;;4919412;29;20957;-75
2022/03/19 13:03:51;;;;;;;7.18;1.90;;;13.40;3.10;;;;;;4930451;28;20446;-75
2022/03/19 13:06:29;;;;;;;4.00;2.00;;;13.40;2.60;;;;;;4920342;29;20467;-76